Time;durP1;ratioP1;P1;durP2;ratioP2;P2;SDS_P1;SDS_P2;PMS_P1;PMS_P2;Temp;Humidity;BMP_temperature;BMP_pressure;BME280_temperature;BME280_humidity;BME280_pressure;Samples;Min_cycle;Max_cycle;Signal;HPM_P1;HPM_P2
2022/02/10 00:03:31;;;;;;;42.05;28.02;;;11.10;99.90;;;11.43;87.23;102007.44;5054184;28;20152;-62
2022/02/10 00:06:27;;;;;;;41.42;28.60;;;11.10;99.90;;;11.50;87.17;101997.75;5053750;28;20100;-61
2022/02/10 00:14:50;;;;;;;41.22;29.35;;;11.20;99.90;;;11.42;86.98;102013.59;5053833;28;20540;-62
2022/02/10 00:17:32;;;;;;;41.83;28.58;;;11.20;99.90;;;11.39;87.14;102007.38;5053648;28;20045;-62
2022/02/10 00:20:13;;;;;;;41.78;29.55;;;11.10;99.90;;;11.44;87.17;102003.88;5053546;28;20474;-62
2022/02/10 00:23:04;;;;;;;45.22;29.83;;;11.10;99.90;;;11.35;87.01;101969.38;5053443;28;20494;-62
2022/02/10 00:34:13;;;;;;;48.72;31.58;;;11.10;99.90;;;11.20;87.26;101977.16;5053648;28;20053;-62
2022/02/10 00:36:44;;;;;;;48.45;32.60;;;11.00;99.90;;;11.23;87.25;101970.97;5053444;28;20544;-62
2022/02/10 00:39:28;;;;;;;48.35;32.70;;;11.00;99.90;;;11.28;87.35;101978.13;5053218;28;20052;-62
2022/02/10 00:41:58;;;;;;;51.88;32.75;;;11.00;99.90;;;11.21;87.31;101967.44;5053137;28;20118;-62
2022/02/10 00:44:26;;;;;;;50.10;32.33;;;11.00;99.90;;;11.18;87.47;101968.31;5053174;28;20047;-62
2022/02/10 00:46:55;;;;;;;49.63;33.50;;;10.90;99.90;;;11.23;87.65;101965.69;5053196;28;20040;-62
2022/02/10 00:49:24;;;;;;;50.33;32.22;;;10.80;99.90;;;11.15;87.62;101960.31;5051750;28;20513;-62
2022/02/10 00:51:52;;;;;;;49.97;32.00;;;10.80;99.90;;;11.10;88.03;101951.44;5052914;28;20037;-62
2022/02/10 00:54:24;;;;;;;49.53;33.35;;;10.80;99.90;;;11.05;88.08;101953.16;5068457;28;20490;-62
2022/02/10 00:56:56;;;;;;;49.88;33.45;;;10.80;99.90;;;11.01;88.17;101953.09;5053175;28;20556;-62
2022/02/10 00:59:36;;;;;;;50.67;34.28;;;10.70;99.90;;;11.07;88.27;101946.09;5053437;28;20406;-62
2022/02/10 01:02:32;;;;;;;52.72;34.63;;;10.70;99.90;;;11.14;88.04;101955.91;5053160;28;20053;-62
2022/02/10 01:10:44;;;;;;;51.95;32.75;;;10.70;99.90;;;11.01;88.50;101934.56;5052695;28;20565;-62
2022/02/10 01:13:28;;;;;;;54.92;33.25;;;10.70;99.90;;;10.99;88.22;101931.03;5068224;28;20044;-62
2022/02/10 01:24:37;;;;;;;51.53;33.13;;;10.70;99.90;;;11.03;88.36;101912.56;5052341;28;20045;-62
2022/02/10 01:29:52;;;;;;;55.63;33.85;;;10.70;99.90;;;10.96;88.29;101904.50;5052972;28;20052;-61
2022/02/10 01:32:22;;;;;;;51.95;32.10;;;10.70;99.90;;;10.98;88.19;101898.34;5052665;28;20083;-62
2022/02/10 01:34:52;;;;;;;46.80;30.95;;;10.70;99.90;;;10.93;88.40;101897.44;5052779;28;20048;-62
2022/02/10 01:37:21;;;;;;;50.50;31.67;;;10.60;99.90;;;10.98;88.04;101871.00;5052543;28;20048;-61
2022/02/10 01:39:55;;;;;;;55.05;33.55;;;10.70;99.90;;;10.93;87.95;101889.50;5052706;28;20068;-61
2022/02/10 02:04:46;;;;;;;54.20;31.08;;;10.60;99.90;;;10.87;89.66;101853.25;5051104;28;20510;-61
2022/02/10 02:07:15;;;;;;;56.45;33.65;;;10.60;99.90;;;10.97;89.77;101856.88;5052148;28;20471;-61
2022/02/10 02:09:43;;;;;;;57.20;32.97;;;10.60;99.90;;;10.87;89.56;101844.44;5052051;28;20049;-61
2022/02/10 02:12:11;;;;;;;55.58;33.47;;;10.60;99.90;;;10.95;89.77;101855.97;5052003;28;20064;-62
2022/02/10 02:14:40;;;;;;;56.47;34.00;;;10.60;99.90;;;10.98;89.80;101858.66;5052022;28;20087;-61
2022/02/10 02:17:08;;;;;;;53.00;32.13;;;10.60;99.90;;;10.84;90.10;101824.09;5052155;28;20041;-61
2022/02/10 02:19:37;;;;;;;51.38;31.85;;;10.70;99.90;;;10.96;90.56;101852.44;5052007;28;20455;-61
2022/02/10 02:22:08;;;;;;;55.30;32.15;;;10.60;99.90;;;11.01;90.50;101850.75;5052079;28;20101;-61
2022/02/10 02:24:38;;;;;;;62.50;35.28;;;10.70;99.90;;;11.01;90.30;101850.75;5052120;28;20418;-62
2022/02/10 02:27:09;;;;;;;59.40;33.30;;;10.70;99.90;;;10.85;90.40;101822.34;5051806;28;20091;-62
2022/02/10 02:29:41;;;;;;;56.65;32.83;;;10.70;99.90;;;10.95;90.50;101837.47;5051978;28;20045;-61
2022/02/10 02:32:15;;;;;;;66.72;35.05;;;10.70;99.90;;;10.87;90.44;101847.06;5052114;28;20049;-61
2022/02/10 02:38:11;;;;;;;71.70;38.47;;;10.60;99.90;;;10.96;90.58;101833.91;5045041;28;20106;-61
2022/02/10 03:06:02;;;;;;;66.90;35.63;;;10.40;99.90;;;10.65;91.94;101805.38;5055205;28;20045;-61
2022/02/10 03:08:38;;;;;;;67.60;37.47;;;10.40;99.90;;;10.72;91.70;101801.94;5055069;28;20049;-61
2022/02/10 03:11:10;;;;;;;64.55;35.30;;;10.40;99.90;;;10.77;91.57;101800.22;5054885;28;20052;-61
2022/02/10 03:13:44;;;;;;;60.85;36.58;;;10.50;99.90;;;10.80;91.27;101789.69;5054766;28;20477;-61
2022/02/10 03:16:42;;;;;;;67.65;36.80;;;10.50;99.90;;;10.76;91.08;101778.16;5054749;28;20052;-61
2022/02/10 03:19:28;;;;;;;63.88;35.85;;;10.50;99.90;;;10.81;90.99;101792.34;5054687;28;20124;-61
2022/02/10 03:22:28;;;;;;;63.42;36.30;;;10.50;99.90;;;10.86;90.69;101785.31;5054740;28;20068;-61
2022/02/10 04:01:54;;;;;;;73.93;40.53;;;10.40;99.90;;;10.74;92.39;101781.69;5052788;28;20053;-61
2022/02/10 04:07:33;;;;;;;73.30;38.25;;;10.40;99.90;;;10.65;92.79;101781.56;5047453;28;20570;-61
2022/02/10 04:15:34;;;;;;;78.43;39.85;;;10.40;99.90;;;10.81;93.26;101786.13;5052077;28;20501;-61
2022/02/10 04:21:17;;;;;;;84.57;40.55;;;10.40;99.90;;;10.04;93.14;101672.47;5053550;28;20096;-61
2022/02/10 04:26:38;;;;;;;76.53;39.17;;;10.40;99.90;;;10.49;93.10;101737.34;5053507;28;20103;-61
2022/02/10 04:57:11;;;;;;;18.25;11.52;;;10.40;99.90;;;10.82;93.50;101764.06;5052994;28;20098;-62
2022/02/10 04:59:55;;;;;;;16.25;12.27;;;10.50;99.90;;;10.19;93.00;101658.59;5052952;28;20037;-62
2022/02/10 05:16:36;;;;;;;15.80;11.68;;;10.50;99.90;;;10.94;93.08;101781.84;5028497;28;20065;-62
2022/02/10 05:22:14;;;;;;;11.77;9.52;;;10.50;99.90;;;10.70;93.08;101754.28;5035305;28;20088;-62
2022/02/10 05:31:23;;;;;;;6.73;6.10;;;10.60;99.90;;;10.93;92.29;101783.63;5052774;28;20057;-62
2022/02/10 05:33:26;;;;;;;5.60;5.20;;;10.70;99.90;;;10.88;91.30;101777.38;5052554;28;20097;-62
2022/02/10 05:35:58;;;;;;;4.97;4.68;;;10.70;99.90;;;10.92;91.21;101783.59;5052421;28;20049;-62
2022/02/10 05:38:31;;;;;;;5.20;4.80;;;10.70;99.90;;;10.88;90.94;101778.28;5052662;28;20080;-63
2022/02/10 05:44:06;;;;;;;5.55;5.15;;;10.70;99.90;;;10.89;90.48;101764.19;5052457;28;20107;-63
2022/02/10 05:47:05;;;;;;;7.03;6.43;;;10.80;99.90;;;11.03;90.30;101789.88;5052849;28;20053;-63
2022/02/10 05:55:34;;;;;;;6.63;6.13;;;10.80;99.90;;;10.83;89.43;101772.06;4971818;28;20085;-63
2022/02/10 05:58:09;;;;;;;6.45;5.95;;;10.80;99.90;;;10.94;89.65;101792.44;5019480;28;20057;-63
2022/02/10 06:51:14;;;;;;;9.73;6.30;;;10.20;99.90;;;10.36;86.99;101843.84;5052253;28;20053;-64
2022/02/10 06:53:52;;;;;;;;;;;10.10;99.90;;;10.20;86.18;101829.53;5055769;28;20143;-64
2022/02/10 07:05:24;;;;;;;8.98;4.90;;;10.10;99.90;;;10.46;84.97;101843.09;5022023;28;20053;-64
2022/02/10 07:08:13;;;;;;;12.20;5.18;;;10.10;99.90;;;10.31;84.39;101820.00;5054738;28;20069;-64
2022/02/10 07:11:15;;;;;;;12.95;5.57;;;10.10;99.90;;;10.47;84.43;101837.81;5054835;28;20406;-64
2022/02/10 07:47:38;;;;;;;14.40;5.90;;;10.30;99.90;;;10.53;82.07;101874.91;5053978;28;20049;-63
2022/02/10 07:50:41;;;;;;;16.25;6.97;;;10.30;99.90;;;10.46;81.67;101877.47;5052710;28;20053;-63
2022/02/10 07:53:46;;;;;;;13.27;6.50;;;10.20;99.90;;;10.47;81.68;101880.13;5053898;28;20043;-65
2022/02/10 07:56:34;;;;;;;11.10;6.90;;;10.20;99.90;;;10.45;81.62;101886.28;5054178;28;20045;-64
2022/02/10 07:59:36;;;;;;;27.33;6.22;;;10.10;99.90;;;10.49;81.71;101888.09;5054103;28;20040;-64
2022/02/10 08:58:40;;;;;;;14.57;5.38;;;10.60;99.90;;;10.75;81.48;101945.75;4971878;28;20078;-63
2022/02/10 09:04:08;;;;;;;16.85;5.82;;;10.40;99.90;;;10.63;80.59;101948.25;5029828;28;20075;-65
2022/02/10 09:12:38;;;;;;;21.35;5.45;;;10.30;99.90;;;10.58;80.75;101947.31;5130773;28;20090;-64
2022/02/10 09:15:40;;;;;;;9.57;5.10;;;10.30;99.90;;;10.78;80.33;101948.41;5130835;28;20077;-64
2022/02/10 09:21:25;;;;;;;12.27;4.90;;;10.40;99.90;;;10.57;80.17;101950.81;5113674;28;20059;-65
2022/02/10 09:57:52;;;;;;;12.05;7.15;;;10.30;99.90;;;10.73;83.39;101978.34;5120742;28;20066;-64
2022/02/10 10:00:37;;;;;;;11.75;6.20;;;10.50;99.90;;;10.63;82.40;101974.69;5130069;28;20043;-65
2022/02/10 10:03:14;;;;;;;13.27;6.13;;;10.50;99.90;;;10.83;81.39;101985.53;5129951;28;20039;-63
2022/02/10 10:05:56;;;;;;;12.57;5.80;;;10.60;99.90;;;10.57;81.00;101977.25;5129981;28;20100;-65
2022/02/10 10:08:52;;;;;;;12.80;5.95;;;10.40;99.90;;;10.49;81.29;101984.19;5129648;28;20541;-67
2022/02/10 10:11:54;;;;;;;9.40;5.78;;;10.30;99.90;;;10.59;80.80;101982.56;5129699;28;20051;-65
2022/02/10 10:14:28;;;;;;;13.10;5.35;;;10.40;99.90;;;10.38;81.13;101991.09;5129621;28;20059;-65
2022/02/10 10:17:26;;;;;;;18.67;6.20;;;10.20;99.90;;;10.35;81.62;101984.88;5130073;28;20556;-65
2022/02/10 10:20:06;;;;;;;13.05;6.53;;;10.20;99.90;;;10.37;82.05;101993.72;5121188;28;20040;-63
2022/02/10 10:51:13;;;;;;;10.88;5.75;;;10.30;99.90;;;10.72;78.44;102003.91;5115239;28;20538;-78
2022/02/10 10:53:52;;;;;;;15.43;5.45;;;10.60;99.90;;;10.74;76.94;102003.97;5115226;28;20118;-64
2022/02/10 10:56:27;;;;;;;14.68;4.70;;;10.60;99.90;;;10.77;73.64;101996.94;5115241;28;20040;-65
2022/02/10 10:59:32;;;;;;;17.52;4.97;;;10.60;99.90;;;10.63;72.14;102000.25;5096800;28;20097;-64
2022/02/10 11:38:17;;;;;;;15.27;6.25;;;10.40;99.90;;;10.51;70.44;101987.75;5114544;28;20043;-64
2022/02/10 11:48:00;;;;;;;18.88;6.30;;;10.60;99.90;;;10.73;72.14;101999.53;5114097;28;20035;-63
2022/02/10 12:36:49;;;;;;;16.92;5.43;;;9.70;99.90;;;9.91;70.61;102005.34;5112881;28;20545;-62
2022/02/10 12:40:06;;;;;;;17.27;5.80;;;9.80;99.90;;;9.81;69.99;101961.97;5113279;28;20104;-65
2022/02/10 13:23:54;;;;;;;18.90;6.03;;;9.40;99.90;;;9.61;71.26;101988.94;5112733;28;20093;-62
2022/02/10 14:09:17;;;;;;;17.00;5.47;;;9.60;99.90;;;9.99;66.71;101982.53;5115949;28;20062;-64
2022/02/10 14:14:39;;;;;;;16.75;5.82;;;10.00;99.90;;;9.86;65.79;101957.69;5102652;28;20070;-64
2022/02/10 14:17:10;;;;;;;14.32;5.45;;;9.90;99.90;;;9.89;65.89;101978.00;5116019;28;20448;-63
2022/02/10 14:19:42;;;;;;;14.98;5.22;;;9.80;99.90;;;9.59;65.73;101986.28;5116059;28;20055;-63
2022/02/10 14:22:25;;;;;;;14.95;6.25;;;9.50;99.90;;;9.43;66.67;101992.16;5115892;28;20062;-63
2022/02/10 14:27:43;;;;;;;13.68;5.65;;;9.20;99.90;;;9.25;67.51;101970.72;5115816;28;20040;-62
2022/02/10 14:30:12;;;;;;;12.93;5.75;;;9.30;99.90;;;9.47;66.88;101999.25;5115709;28;20119;-63
2022/02/10 14:32:44;;;;;;;;;;;9.30;99.90;;;9.55;65.71;101992.38;5116270;28;20047;-63
2022/02/10 14:35:18;;;;;;;17.92;6.18;;;9.40;99.90;;;9.62;66.22;101969.59;5115921;28;19958;-62
2022/02/10 14:38:09;;;;;;;13.32;5.50;;;9.50;99.90;;;9.78;66.47;101998.03;5115704;28;20047;-64
2022/02/10 14:41:05;;;;;;;18.55;6.05;;;9.60;99.90;;;9.50;65.90;101980.84;5115651;28;20070;-64
2022/02/10 15:12:04;;;;;;;13.52;5.28;;;9.30;99.90;;;9.16;67.31;101994.25;5114514;28;20505;-66
2022/02/10 15:56:43;;;;;;;14.82;6.57;;;9.30;99.90;;;9.45;66.32;102008.00;5112928;28;20082;-64
2022/02/10 16:16:51;;;;;;;9.10;4.60;;;9.50;99.90;;;9.72;65.25;101997.94;5112982;28;20055;-64
2022/02/10 16:19:19;;;;;;;14.38;5.13;;;9.60;99.90;;;9.73;64.82;101995.34;5113473;28;20100;-64
2022/02/10 16:22:00;;;;;;;13.05;5.25;;;9.50;99.90;;;9.61;64.84;101996.88;5113345;28;20124;-66
2022/02/10 16:24:32;;;;;;;15.63;5.35;;;9.40;99.90;;;9.47;64.70;101966.69;5113455;28;20454;-65
2022/02/10 16:27:12;;;;;;;13.27;5.28;;;9.40;99.90;;;9.46;64.64;101971.09;5113431;28;20051;-65
2022/02/10 16:29:40;;;;;;;11.73;4.85;;;9.40;99.90;;;9.68;64.60;101991.72;5113379;28;20096;-64
2022/02/10 16:32:11;;;;;;;11.05;4.63;;;9.50;99.90;;;9.55;64.94;101992.38;5113261;28;20114;-65
2022/02/10 16:34:44;;;;;;;15.93;5.65;;;9.40;99.90;;;9.52;65.49;101994.06;5113175;28;20108;-64
2022/02/10 16:37:18;;;;;;;14.85;5.13;;;9.40;99.90;;;9.54;65.03;101990.56;5113290;28;20054;-64
2022/02/10 16:39:53;;;;;;;15.80;4.50;;;9.40;99.90;;;9.37;65.28;101986.75;5113222;28;20036;-64
2022/02/10 16:42:26;;;;;;;10.95;4.90;;;9.20;99.90;;;9.35;64.58;101969.97;5113091;28;20048;-64
2022/02/10 16:44:54;;;;;;;12.25;4.80;;;9.20;99.90;;;9.48;63.95;101979.94;5113124;28;20050;-65
2022/02/10 16:47:28;;;;;;;14.02;5.55;;;9.30;99.90;;;9.46;63.92;101984.28;5113024;28;20104;-65
2022/02/10 16:50:02;;;;;;;19.08;5.80;;;9.30;99.90;;;9.40;63.80;101973.63;5113428;28;20035;-64
2022/02/10 16:52:37;;;;;;;13.85;5.20;;;9.30;99.90;;;9.32;64.04;101998.09;5113278;28;20056;-63
2022/02/10 16:55:21;;;;;;;12.55;5.15;;;9.20;99.90;;;9.39;63.11;101986.81;5113024;28;20044;-64
2022/02/10 16:58:02;;;;;;;9.50;4.60;;;9.30;99.90;;;9.43;63.37;101993.88;5112940;28;20404;-64
2022/02/10 17:01:01;;;;;;;13.57;4.35;;;9.20;99.90;;;9.19;63.02;101985.53;5113118;28;20143;-64
2022/02/10 17:15:33;;;;;;;12.32;4.95;;;8.80;99.90;;;8.97;64.36;102002.69;5113238;28;20040;-60
2022/02/10 17:18:20;;;;;;;12.25;5.00;;;8.80;99.90;;;8.99;64.15;101987.78;5112781;28;20046;-69
2022/02/10 17:21:01;;;;;;;12.15;5.80;;;8.90;99.90;;;9.16;63.71;102007.47;5112738;28;20092;-65
2022/02/10 17:26:32;;;;;;;14.13;5.68;;;8.90;99.90;;;9.15;64.32;102018.00;5112635;28;20043;-66
2022/02/10 17:29:11;;;;;;;13.27;5.03;;;8.90;99.90;;;9.29;64.36;102020.03;5113016;28;20039;-63
2022/02/10 17:31:44;;;;;;;13.32;5.32;;;9.10;99.90;;;9.21;64.84;102019.03;5116745;28;20055;-65
2022/02/10 17:34:39;;;;;;;15.10;5.55;;;9.10;99.90;;;9.25;64.49;101997.09;5098666;28;20488;-65
2022/02/10 17:37:16;;;;;;;13.85;5.70;;;9.20;99.90;;;9.13;64.58;101988.94;5116783;28;20047;-65
2022/02/10 17:45:39;;;;;;;21.63;6.15;;;9.00;99.90;;;9.30;64.63;102023.56;5116002;28;20055;-65
2022/02/10 17:53:42;;;;;;;13.85;5.13;;;9.20;99.90;;;8.94;65.69;101986.81;5092666;28;20063;-65
2022/02/10 17:56:11;;;;;;;17.10;5.50;;;9.00;99.90;;;9.10;65.88;102024.06;5117387;28;20494;-65
2022/02/10 17:58:39;;;;;;;12.60;5.03;;;9.00;99.90;;;9.27;66.08;102019.13;5116385;28;20135;-70
2022/02/10 18:01:11;;;;;;;10.73;4.88;;;9.10;99.90;;;9.25;66.01;102018.22;5116395;28;20489;-67
2022/02/10 18:03:40;;;;;;;12.93;4.90;;;9.00;99.90;;;9.30;65.91;102023.56;5116217;28;20058;-66
2022/02/10 18:06:20;;;;;;;14.15;5.43;;;9.10;99.90;;;9.18;66.21;102011.03;5116380;28;20048;-63
2022/02/10 18:09:06;;;;;;;16.10;5.78;;;9.10;99.90;;;9.27;66.35;102016.47;5115669;28;20043;-66
2022/02/10 18:14:36;;;;;;;12.20;5.78;;;9.10;99.90;;;9.31;66.04;102017.44;5073034;28;20044;-62
2022/02/10 18:17:30;;;;;;;11.13;5.03;;;9.10;99.90;;;9.14;66.75;102018.88;5112865;28;20129;-62
2022/02/10 18:20:06;;;;;;;15.25;5.82;;;9.10;99.90;;;9.08;67.23;101998.50;5115923;28;20060;-63
2022/02/10 18:25:33;;;;;;;12.63;5.25;;;9.00;99.90;;;9.12;67.69;102028.50;5113895;28;20063;-63
2022/02/10 18:28:25;;;;;;;12.57;4.85;;;9.00;99.90;;;9.04;68.50;102030.97;5115545;28;20044;-63
2022/02/10 19:02:10;;;;;;;13.07;5.03;;;9.00;99.90;;;9.15;67.49;102026.81;5114966;28;20043;-66
2022/02/10 19:07:37;;;;;;;10.80;5.03;;;9.00;99.90;;;9.19;67.61;102044.50;5114808;28;20067;-64
2022/02/10 19:10:10;;;;;;;12.70;5.57;;;9.00;99.90;;;9.09;67.46;102053.97;5114890;28;20075;-64
2022/02/10 19:12:44;;;;;;;17.45;5.85;;;9.00;99.90;;;9.18;67.71;102057.63;5114717;28;20354;-64
2022/02/10 19:15:19;;;;;;;14.68;5.53;;;9.00;99.90;;;8.23;68.29;101892.09;5114712;28;20503;-64
2022/02/10 19:17:50;;;;;;;9.80;4.97;;;9.00;99.90;;;9.05;67.74;102028.38;5114812;28;20058;-65
2022/02/10 19:20:21;;;;;;;10.85;5.28;;;9.00;99.90;;;8.95;67.79;102021.13;5114758;28;20098;-68
2022/02/10 19:22:51;;;;;;;16.95;5.97;;;8.90;99.90;;;9.03;67.92;102069.69;5114734;28;20049;-65
2022/02/10 19:25:20;;;;;;;20.33;6.20;;;8.80;99.90;;;9.03;67.89;102039.75;5114651;28;20043;-67
2022/02/10 19:27:50;;;;;;;14.45;5.30;;;8.90;99.90;;;9.12;67.06;102036.44;5114567;28;20059;-67
2022/02/10 19:30:22;;;;;;;15.70;5.30;;;8.90;99.90;;;9.09;67.14;102038.16;5114592;28;20404;-65
2022/02/10 19:32:55;;;;;;;11.30;4.57;;;8.90;99.90;;;9.11;66.82;102040.81;5114753;28;20044;-65
2022/02/10 19:35:25;;;;;;;10.20;5.13;;;8.90;99.90;;;8.94;66.88;102037.81;5096264;28;20488;-66
2022/02/10 19:38:00;;;;;;;14.30;5.07;;;8.80;99.90;;;9.01;66.13;102042.38;5114537;28;20055;-66
2022/02/10 19:40:33;;;;;;;15.30;5.32;;;8.80;99.90;;;8.99;65.93;102037.91;5114326;28;20403;-65
2022/02/10 19:43:01;;;;;;;10.45;5.53;;;8.90;99.90;;;8.89;65.88;102020.09;5114287;28;20048;-66
2022/02/10 19:45:30;;;;;;;13.27;5.20;;;8.90;99.90;;;9.05;65.69;102040.69;5095781;28;20047;-68
2022/02/10 19:47:59;;;;;;;14.30;5.55;;;8.90;99.90;;;8.97;65.58;102035.25;5114249;28;20061;-69
2022/02/10 19:50:29;;;;;;;17.83;5.65;;;8.80;99.90;;;9.01;65.69;102036.19;5114168;28;20039;-69
2022/02/10 19:53:03;;;;;;;15.43;4.82;;;8.90;99.90;;;9.03;65.26;102035.38;5113219;28;20040;-69
2022/02/10 19:55:34;;;;;;;12.35;4.90;;;8.90;99.90;;;8.88;65.14;102008.66;5095921;28;20047;-64
2022/02/10 19:58:07;;;;;;;15.85;5.22;;;8.90;99.90;;;9.10;65.15;102033.72;5113957;28;20533;-63
2022/02/10 20:00:42;;;;;;;14.20;5.65;;;9.00;99.90;;;9.04;65.61;102038.88;5113961;28;20043;-66
2022/02/10 20:03:15;;;;;;;13.38;4.88;;;8.90;99.90;;;8.97;65.52;102044.91;5113808;28;20047;-68
2022/02/10 20:05:46;;;;;;;17.80;5.63;;;8.80;99.90;;;8.88;65.15;102050.88;5113759;28;20050;-63
2022/02/10 20:08:17;;;;;;;;;;;8.80;99.90;;;8.91;65.00;102050.06;5095834;28;20124;-68
2022/02/10 20:10:48;;;;;;;12.45;5.00;;;8.70;99.90;;;8.78;65.08;102035.72;5113768;28;19973;-67
2022/02/10 20:13:16;;;;;;;12.35;5.10;;;8.70;99.90;;;8.81;65.08;102048.06;5113758;28;20039;-68
2022/02/10 20:15:46;;;;;;;13.45;5.07;;;8.70;99.90;;;8.63;65.06;102031.88;5113609;28;20048;-66
2022/02/10 20:18:15;;;;;;;12.93;4.72;;;8.60;99.90;;;8.30;65.06;101950.28;5113888;28;20044;-65
2022/02/10 20:20:45;;;;;;;15.95;5.45;;;8.70;99.90;;;8.61;64.88;101996.66;5113704;28;20039;-65
2022/02/10 20:23:17;;;;;;;14.23;5.22;;;8.70;99.90;;;8.75;64.02;102045.31;5113622;28;20439;-66
2022/02/10 20:26:05;;;;;;;14.88;5.07;;;8.60;99.90;;;8.76;64.58;102052.38;5113773;28;20135;-66
2022/02/10 20:28:34;;;;;;;11.55;4.97;;;8.60;99.90;;;8.93;64.35;102056.25;5113496;28;20434;-67
2022/02/10 20:31:03;;;;;;;17.23;5.45;;;8.70;99.90;;;8.93;64.41;102050.97;5113558;28;20048;-67
2022/02/10 20:33:32;;;;;;;14.73;5.60;;;8.80;99.90;;;8.78;64.62;102043.63;5113285;28;20062;-67
2022/02/10 20:36:03;;;;;;;18.88;5.72;;;8.70;99.90;;;8.77;64.18;102059.41;5113860;28;20048;-68
2022/02/10 20:38:37;;;;;;;11.52;4.90;;;8.60;99.90;;;8.63;64.58;102053.81;5113373;28;20048;-67
2022/02/10 20:41:08;;;;;;;14.57;5.38;;;8.60;99.90;;;8.59;64.59;102053.75;5113187;28;20046;-67
2022/02/10 20:43:37;;;;;;;12.32;5.35;;;8.50;99.90;;;8.43;65.27;102035.78;5113433;28;20067;-67
2022/02/10 20:46:09;;;;;;;13.55;5.30;;;8.40;99.90;;;8.35;65.36;102050.53;5113094;28;20096;-67
2022/02/10 20:48:39;;;;;;;15.68;5.47;;;8.30;99.90;;;8.38;64.98;102054.13;5095053;28;20055;-66
2022/02/10 20:51:12;;;;;;;13.60;4.97;;;8.20;99.90;;;8.05;64.83;102001.47;5113141;28;20040;-66
2022/02/10 20:53:45;;;;;;;18.20;4.97;;;8.30;99.90;;;8.46;64.39;102057.84;5113051;28;20049;-64
2022/02/10 20:56:18;;;;;;;16.10;5.47;;;8.30;99.90;;;8.43;64.14;102064.78;5113215;28;20499;-67
2022/02/10 20:58:53;;;;;;;17.27;5.38;;;8.30;99.90;;;8.42;63.77;102068.28;5113179;28;20047;-65
2022/02/10 21:01:21;;;;;;;12.32;6.30;;;8.30;99.90;;;8.28;64.26;102061.78;5113004;28;20438;-66
2022/02/10 21:03:50;;;;;;;14.07;5.28;;;8.20;99.90;;;8.35;63.97;102059.34;5112649;28;20079;-67
2022/02/10 21:06:37;;;;;;;14.88;6.15;;;8.20;99.90;;;8.34;64.06;102061.94;5113370;28;20093;-65
2022/02/10 21:09:12;;;;;;;16.85;5.95;;;8.20;99.90;;;8.37;64.68;102056.72;5112755;28;20439;-67
2022/02/10 21:11:41;;;;;;;17.00;5.60;;;8.20;99.90;;;8.38;64.59;102054.13;5113266;28;20446;-65
2022/02/10 21:14:17;;;;;;;17.90;5.65;;;8.20;99.90;;;8.25;64.60;102061.69;5112678;28;20056;-64
2022/02/10 21:16:45;;;;;;;16.65;5.30;;;8.10;99.90;;;8.39;64.60;102057.66;5112901;28;20542;-64
2022/02/10 21:19:17;;;;;;;15.43;5.80;;;8.20;99.90;;;8.37;64.58;102043.56;5094798;28;20036;-66
2022/02/10 21:21:45;;;;;;;14.93;5.30;;;8.30;99.90;;;8.47;64.30;102048.19;5112722;28;20052;-64
2022/02/10 21:24:23;;;;;;;18.23;6.45;;;8.30;99.90;;;8.48;63.73;102045.56;5112670;28;20400;-66
2022/02/10 21:27:07;;;;;;;14.20;5.72;;;8.30;99.90;;;8.53;63.59;102038.69;5112595;28;20119;-65
2022/02/10 21:29:36;;;;;;;13.00;4.85;;;8.40;99.90;;;8.47;63.55;102021.81;5112815;28;20063;-66
2022/02/10 21:32:05;;;;;;;15.80;5.50;;;8.40;99.90;;;8.57;63.86;102029.09;5112557;28;20130;-67
2022/02/10 21:34:47;;;;;;;16.48;5.22;;;8.50;99.90;;;8.56;63.43;102029.91;5112649;28;20048;-66
2022/02/10 21:37:19;;;;;;;16.80;5.28;;;8.50;99.90;;;8.53;63.48;102045.69;5112584;28;20465;-67
2022/02/10 21:39:55;;;;;;;17.83;6.30;;;8.40;99.90;;;8.31;63.93;102009.13;5112667;28;20431;-66
2022/02/10 21:48:24;;;;;;;18.70;5.45;;;8.40;99.90;;;8.55;64.19;102036.97;5049701;28;20500;-68
2022/02/10 21:57:10;;;;;;;15.18;5.57;;;8.40;99.90;;;8.56;64.24;102043.09;5151622;27;20373;-73
2022/02/10 22:16:45;;;;;;;15.65;5.43;;;8.20;99.90;;;8.44;65.10;102040.22;5130464;27;20039;-64
2022/02/10 22:19:16;;;;;;;16.27;5.63;;;8.30;99.90;;;8.43;64.72;102039.31;5130989;28;20051;-65
2022/02/10 22:21:49;;;;;;;18.40;5.88;;;8.30;99.90;;;8.35;65.45;102048.78;5130976;28;20051;-74
2022/02/10 22:24:18;;;;;;;16.75;5.53;;;8.30;99.90;;;8.25;65.75;102057.31;5130851;27;20412;-68
2022/02/10 22:26:49;;;;;;;18.00;6.18;;;8.20;99.90;;;8.20;65.86;102054.56;5130369;27;20085;-69
2022/02/10 22:29:26;;;;;;;21.25;5.88;;;8.10;99.90;;;8.26;65.46;102052.97;5146191;27;20443;-69
2022/02/10 22:32:06;;;;;;;15.68;5.90;;;8.10;99.90;;;8.28;65.83;102053.88;5130226;28;20072;-70
2022/02/10 22:34:41;;;;;;;18.95;5.88;;;8.20;99.90;;;7.99;65.65;102030.31;5130267;28;20043;-70
2022/02/10 22:37:14;;;;;;;20.25;6.00;;;8.10;99.90;;;8.32;65.89;102055.75;5130354;27;20063;-69
2022/02/10 22:39:45;;;;;;;22.90;5.85;;;8.20;99.90;;;8.26;65.71;102056.50;5130425;27;20043;-69
2022/02/10 22:42:15;;;;;;;13.40;5.43;;;8.20;99.90;;;8.10;65.41;102020.03;5130089;28;20043;-69
2022/02/10 22:44:45;;;;;;;16.45;5.93;;;8.20;99.90;;;8.20;65.87;102041.41;5130041;27;20121;-69
2022/02/10 22:47:13;;;;;;;19.63;5.70;;;8.20;99.90;;;8.14;65.85;102043.88;5130256;27;20065;-69
2022/02/10 22:49:42;;;;;;;17.10;5.13;;;8.10;99.90;;;7.98;66.07;102010.09;5129918;28;20047;-69
2022/02/10 22:52:13;;;;;;;15.30;5.40;;;8.10;99.90;;;8.17;66.32;102041.31;5129869;27;20388;-69
2022/02/10 22:54:42;;;;;;;13.20;5.90;;;8.10;99.90;;;8.03;66.96;102049.75;5129766;27;20039;-69
2022/02/10 22:57:10;;;;;;;19.73;5.53;;;7.90;99.90;;;8.14;66.78;102054.41;5129664;28;20090;-69
2022/02/10 22:59:39;;;;;;;19.27;6.03;;;8.00;99.90;;;7.97;67.32;102049.59;5130092;27;20047;-70
2022/02/10 23:02:09;;;;;;;24.20;6.65;;;7.90;99.90;;;8.06;67.26;102052.44;5129609;27;20572;-72
2022/02/10 23:04:37;;;;;;;28.27;6.38;;;7.90;99.90;;;8.03;67.61;102055.88;5129551;27;20561;-70
2022/02/10 23:07:09;;;;;;;17.00;5.78;;;7.90;99.90;;;8.09;67.25;102066.56;5122151;28;20488;-70
2022/02/10 23:09:48;;;;;;;19.35;5.78;;;7.90;99.90;;;8.01;67.07;102067.25;5115853;28;20058;-70
2022/02/10 23:12:16;;;;;;;19.05;5.80;;;7.90;99.90;;;7.94;67.11;102062.66;5115764;28;20039;-70
2022/02/10 23:14:45;;;;;;;17.98;6.20;;;7.80;99.90;;;7.92;67.19;102065.25;5116101;28;20053;-70
2022/02/10 23:17:15;;;;;;;25.38;6.53;;;7.80;99.90;;;7.99;67.53;102074.22;5115520;28;20039;-71
2022/02/10 23:19:43;;;;;;;22.27;6.40;;;7.90;99.90;;;7.82;67.12;102047.44;5115611;28;20044;-70
2022/02/10 23:22:11;;;;;;;23.48;6.45;;;7.90;99.90;;;7.99;67.47;102075.09;5115626;28;20543;-70
2022/02/10 23:24:40;;;;;;;20.35;6.57;;;7.90;99.90;;;7.91;68.32;102070.50;5115509;28;20043;-70
2022/02/10 23:27:08;;;;;;;21.52;6.57;;;7.80;99.90;;;7.99;67.43;102063.69;5115525;28;20123;-69
2022/02/10 23:29:36;;;;;;;21.73;5.45;;;7.90;99.90;;;8.00;67.69;102065.44;5115363;28;20039;-70
2022/02/10 23:32:06;;;;;;;19.10;6.85;;;7.90;99.90;;;8.06;67.70;102058.59;5115415;28;20130;-70
2022/02/10 23:34:36;;;;;;;23.98;6.03;;;7.90;99.90;;;8.11;67.98;102054.31;5115489;28;20052;-70
2022/02/10 23:37:08;;;;;;;20.55;5.80;;;8.00;99.90;;;7.94;68.25;102060.94;5115511;28;20485;-70
2022/02/10 23:39:39;;;;;;;23.27;6.72;;;7.90;99.90;;;7.95;68.33;102052.19;5115472;28;20118;-69
2022/02/10 23:42:13;;;;;;;;;;;7.90;99.90;;;8.05;68.12;102059.44;5116478;28;20040;-70
2022/02/10 23:44:45;;;;;;;26.30;6.45;;;7.90;99.90;;;7.73;69.35;102057.75;5115302;28;20342;-70
2022/02/10 23:47:19;;;;;;;24.67;6.00;;;7.70;99.90;;;7.69;69.10;102070.78;5115340;28;20089;-70
2022/02/10 23:49:52;;;;;;;21.05;6.10;;;7.60;99.90;;;7.46;69.63;102058.75;5115156;28;20058;-70
2022/02/10 23:52:25;;;;;;;19.52;5.95;;;7.50;99.90;;;7.67;69.69;102075.13;5115229;28;20048;-70